createdAt,value
2017-05-09T00:00:34.777Z,8.00
2017-05-09T00:03:03.820Z,8.20
2017-05-09T00:05:32.849Z,8.50
2017-05-09T00:08:01.905Z,8.20
2017-05-09T00:10:31.449Z,8.50
2017-05-09T00:13:00.501Z,8.50
2017-05-09T00:15:29.518Z,8.60
2017-05-09T00:17:58.560Z,8.50
2017-05-09T00:20:28.582Z,8.30
2017-05-09T00:22:57.621Z,8.40
2017-05-09T00:25:26.649Z,8.40
2017-05-09T00:27:55.713Z,8.50
2017-05-09T00:30:24.737Z,8.40
2017-05-09T00:32:53.765Z,8.30
2017-05-09T00:35:23.544Z,8.60
2017-05-09T00:37:52.585Z,8.50
2017-05-09T00:40:21.630Z,8.50
2017-05-09T00:42:51.188Z,8.60
2017-05-09T00:45:20.351Z,8.30
2017-05-09T00:47:49.356Z,8.10
2017-05-09T00:50:18.412Z,8.10
2017-05-09T00:52:47.432Z,8.00
2017-05-09T00:55:17.226Z,7.80
2017-05-09T00:57:46.348Z,7.50
2017-05-09T01:00:16.100Z,7.80
2017-05-09T01:02:45.200Z,7.50
2017-05-09T01:05:14.206Z,7.60
2017-05-09T01:07:43.267Z,7.50
2017-05-09T01:10:12.273Z,7.30
2017-05-09T01:12:41.339Z,7.20
2017-05-09T01:15:10.402Z,7.30
2017-05-09T01:17:39.497Z,7.00
2017-05-09T01:20:08.548Z,6.90
2017-05-09T01:22:37.573Z,7.00
2017-05-09T01:25:06.623Z,7.30
2017-05-09T01:27:35.638Z,7.20
2017-05-09T01:30:04.682Z,6.80
2017-05-09T01:32:34.457Z,6.90
2017-05-09T01:35:03.501Z,7.00
2017-05-09T01:37:32.526Z,6.90
2017-05-09T01:40:01.595Z,6.80
2017-05-09T01:42:30.609Z,6.90
2017-05-09T01:44:59.741Z,6.90
2017-05-09T01:47:28.802Z,6.50
2017-05-09T01:49:57.850Z,6.60
2017-05-09T01:52:27.642Z,6.50
2017-05-09T01:54:56.757Z,6.70
2017-05-09T01:57:25.790Z,6.70
2017-05-09T01:59:54.816Z,7.00
2017-05-09T02:02:23.853Z,7.10
2017-05-09T02:04:52.879Z,6.90
2017-05-09T02:07:22.010Z,6.80
2017-05-09T02:09:51.106Z,6.80
2017-05-09T02:12:20.129Z,6.80
2017-05-09T02:14:49.174Z,6.80
2017-05-09T02:17:18.203Z,6.80
2017-05-09T02:19:47.986Z,7.10
2017-05-09T02:22:17.012Z,7.00
2017-05-09T02:24:46.899Z,6.50
2017-05-09T02:27:15.917Z,6.70
2017-05-09T02:29:45.726Z,6.40
2017-05-09T02:32:15.522Z,6.50
2017-05-09T02:34:44.541Z,6.30
2017-05-09T02:37:13.623Z,6.20
2017-05-09T02:39:43.418Z,6.10
2017-05-09T02:42:12.514Z,6.10
2017-05-09T02:44:41.537Z,5.80
2017-05-09T02:47:10.598Z,5.90
2017-05-09T02:49:39.614Z,6.10
2017-05-09T02:52:09.401Z,6.20
2017-05-09T02:54:38.501Z,6.20
2017-05-09T02:57:07.597Z,6.40
2017-05-09T02:59:36.635Z,6.30
2017-05-09T03:02:05.672Z,6.30
2017-05-09T03:04:34.713Z,6.50
2017-05-09T03:07:03.736Z,6.40
2017-05-09T03:09:32.863Z,6.70
2017-05-09T03:12:01.889Z,6.40
2017-05-09T03:14:30.972Z,6.50
2017-05-09T03:16:59.980Z,6.70
2017-05-09T03:19:29.036Z,6.10
2017-05-09T03:21:58.094Z,6.30
2017-05-09T03:24:27.115Z,6.30
2017-05-09T03:26:56.160Z,6.20
2017-05-09T03:29:25.179Z,6.20
2017-05-09T03:31:54.333Z,6.20
2017-05-09T03:34:24.086Z,6.20
2017-05-09T03:36:53.121Z,6.20
2017-05-09T03:39:22.889Z,6.10
2017-05-09T03:41:51.942Z,6.20
2017-05-09T03:44:21.694Z,6.00
2017-05-09T03:46:50.745Z,6.10
2017-05-09T03:49:20.514Z,6.00
2017-05-09T03:51:49.547Z,5.90
2017-05-09T03:54:19.342Z,5.70
2017-05-09T03:56:48.355Z,6.10
2017-05-09T03:59:18.138Z,5.90
2017-05-09T04:01:47.237Z,6.00
2017-05-09T04:04:16.295Z,5.80
2017-05-09T04:06:45.305Z,6.00
2017-05-09T04:09:14.347Z,6.00
2017-05-09T04:11:43.374Z,5.90
2017-05-09T04:14:12.420Z,5.90
2017-05-09T04:16:41.444Z,6.00
2017-05-09T04:19:10.481Z,6.20
2017-05-09T04:21:39.511Z,5.90
2017-05-09T04:24:09.274Z,5.80
2017-05-09T04:26:38.325Z,6.40
2017-05-09T04:29:07.391Z,6.30
2017-05-09T04:31:36.413Z,6.00
2017-05-09T04:34:05.461Z,6.00
2017-05-09T04:36:34.530Z,6.00
2017-05-09T04:39:03.570Z,6.20
2017-05-09T04:41:32.618Z,6.20
2017-05-09T04:44:01.634Z,6.20
2017-05-09T04:46:30.747Z,6.10
2017-05-09T04:48:59.772Z,6.20
2017-05-09T04:51:29.600Z,6.20
2017-05-09T04:53:58.633Z,6.20
2017-05-09T04:56:27.682Z,6.30
2017-05-09T04:58:56.754Z,6.30
2017-05-09T05:01:26.527Z,6.40
2017-05-09T05:03:55.575Z,6.20
2017-05-09T05:06:24.645Z,6.50
2017-05-09T05:08:53.750Z,6.60
2017-05-09T05:11:23.540Z,6.40
2017-05-09T05:13:52.653Z,6.60
2017-05-09T05:16:21.658Z,6.50
2017-05-09T05:18:50.710Z,6.90
2017-05-09T05:21:19.726Z,6.80
2017-05-09T05:23:49.511Z,6.90
2017-05-09T05:26:18.554Z,7.10
2017-05-09T05:28:47.580Z,6.90
2017-05-09T05:31:16.637Z,7.30
2017-05-09T05:33:46.402Z,7.20
2017-05-09T05:36:15.433Z,7.30
2017-05-09T05:38:45.229Z,7.50
2017-05-09T05:41:14.271Z,7.80
2017-05-09T05:43:43.300Z,7.50
2017-05-09T05:46:12.360Z,7.60
2017-05-09T05:48:41.521Z,7.50
2017-05-09T05:51:10.683Z,7.50
2017-05-09T05:53:39.729Z,7.90
2017-05-09T05:56:08.791Z,8.10
2017-05-09T05:58:37.835Z,8.10
2017-05-09T06:01:06.851Z,8.30
2017-05-09T06:03:35.988Z,8.50
2017-05-09T06:06:04.998Z,8.50
2017-05-09T06:08:34.068Z,8.60
2017-05-09T06:11:03.086Z,8.40
2017-05-09T06:13:32.125Z,8.40
2017-05-09T06:16:01.193Z,8.90
2017-05-09T06:18:30.226Z,8.80
2017-05-09T06:20:59.291Z,8.80
2017-05-09T06:23:28.319Z,8.70
2017-05-09T06:26:04.563Z,8.80
2017-05-09T06:28:33.577Z,8.80
2017-05-09T06:31:02.739Z,8.60
2017-05-09T06:33:31.787Z,8.30
2017-05-09T06:36:01.578Z,8.30
2017-05-09T06:38:30.597Z,8.70
2017-05-09T06:41:00.406Z,8.70
2017-05-09T06:43:29.505Z,8.80
2017-05-09T06:45:58.586Z,9.00
2017-05-09T06:48:27.862Z,9.30
2017-05-09T06:50:57.667Z,9.20
2017-05-09T06:53:26.710Z,9.20
2017-05-09T06:55:55.728Z,9.40
2017-05-09T06:58:24.776Z,9.40
2017-05-09T07:00:54.549Z,9.60
2017-05-09T07:03:23.613Z,9.70
2017-05-09T07:05:52.647Z,9.70
2017-05-09T07:08:21.693Z,9.70
2017-05-09T07:10:50.769Z,9.90
2017-05-09T07:13:20.540Z,9.60
2017-05-09T07:15:49.581Z,10.10
2017-05-09T07:18:18.635Z,10.20
2017-05-09T07:20:47.707Z,10.00
2017-05-09T07:23:16.737Z,10.00
2017-05-09T07:25:45.806Z,10.30
2017-05-09T07:28:14.830Z,10.10
2017-05-09T07:30:44.625Z,10.00
2017-05-09T07:33:13.657Z,10.20
2017-05-09T07:35:42.705Z,10.50
2017-05-09T07:38:11.768Z,10.50
2017-05-09T07:40:40.958Z,10.70
2017-05-09T07:43:09.992Z,10.80
2017-05-09T07:45:39.020Z,11.10
2017-05-09T07:48:08.819Z,11.20
2017-05-09T07:50:38.614Z,10.90
2017-05-09T07:53:07.669Z,11.00
2017-05-09T07:55:36.716Z,11.60
2017-05-09T07:58:05.768Z,11.60
2017-05-09T08:00:34.827Z,12.10
2017-05-09T08:03:03.889Z,12.70
2017-05-09T08:05:32.951Z,13.90
2017-05-09T08:08:01.977Z,14.40
2017-05-09T08:10:31.883Z,14.20
2017-05-09T08:13:00.924Z,15.30
2017-05-09T08:15:30.579Z,15.80
2017-05-09T08:17:59.611Z,17.10
2017-05-09T08:20:29.725Z,17.10
2017-05-09T08:22:58.779Z,17.90
2017-05-09T08:25:27.923Z,18.60
2017-05-09T08:27:56.946Z,18.30
2017-05-09T08:30:26.020Z,18.90
2017-05-09T08:32:55.774Z,18.80
2017-05-09T08:35:24.854Z,19.00
2017-05-09T08:37:53.877Z,19.90
2017-05-09T08:40:22.945Z,19.90
2017-05-09T08:42:52.090Z,20.40
2017-05-09T08:45:21.121Z,19.40
2017-05-09T08:47:50.171Z,17.70
2017-05-09T08:50:19.204Z,16.50
2017-05-09T08:52:48.248Z,16.40
2017-05-09T08:55:17.278Z,17.60
2017-05-09T08:57:46.329Z,18.90
2017-05-09T09:00:16.278Z,19.00
2017-05-09T09:02:46.088Z,20.40
2017-05-09T09:05:15.109Z,21.40
2017-05-09T09:07:44.261Z,21.60
2017-05-09T09:10:13.308Z,23.00
2017-05-09T09:12:42.372Z,24.10
2017-05-09T09:15:12.167Z,23.70
2017-05-09T09:17:41.271Z,22.70
2017-05-09T09:20:10.298Z,20.90
2017-05-09T09:22:39.333Z,19.00
2017-05-09T09:25:08.388Z,17.40
2017-05-09T09:27:37.416Z,16.60
2017-05-09T09:30:06.530Z,16.10
2017-05-09T09:32:35.600Z,15.40
2017-05-09T09:35:04.621Z,15.30
2017-05-09T09:37:34.423Z,16.20
2017-05-09T09:40:03.635Z,16.20
2017-05-09T09:42:33.432Z,16.50
2017-05-09T09:45:02.501Z,16.30
2017-05-09T09:47:31.553Z,15.80
2017-05-09T09:50:00.584Z,16.50
2017-05-09T09:52:29.738Z,19.30
2017-05-09T09:54:58.757Z,21.60
2017-05-09T09:57:27.799Z,22.20
2017-05-09T09:59:56.835Z,23.40
2017-05-09T10:02:25.905Z,23.20
2017-05-09T10:04:55.693Z,21.50
2017-05-09T10:07:24.719Z,19.90
2017-05-09T10:09:54.515Z,19.10
2017-05-09T10:12:23.551Z,18.50
2017-05-09T10:14:52.587Z,18.00
2017-05-09T10:17:21.615Z,17.80
2017-05-09T10:19:50.672Z,17.30
2017-05-09T10:22:19.731Z,17.00
2017-05-09T10:24:48.896Z,15.70
2017-05-09T10:27:18.654Z,15.70
2017-05-09T10:29:47.725Z,15.70
2017-05-09T10:32:16.764Z,15.80
2017-05-09T10:34:45.802Z,18.10
2017-05-09T10:37:14.835Z,21.00
2017-05-09T10:39:43.893Z,21.20
2017-05-09T10:42:12.925Z,20.50
2017-05-09T10:44:41.982Z,19.70
2017-05-09T10:47:10.994Z,18.40
2017-05-09T10:49:40.034Z,18.00
2017-05-09T10:52:09.081Z,20.10
2017-05-09T10:54:38.122Z,22.70
2017-05-09T10:57:07.153Z,26.80
2017-05-09T10:59:36.209Z,28.10
2017-05-09T11:02:05.273Z,28.00
2017-05-09T11:04:34.329Z,28.60
2017-05-09T11:07:03.401Z,28.70
2017-05-09T11:09:32.446Z,27.20
2017-05-09T11:12:01.464Z,26.20
2017-05-09T11:14:30.529Z,24.00
2017-05-09T11:16:59.579Z,23.50
2017-05-09T11:19:29.367Z,24.20
2017-05-09T11:21:58.429Z,25.40
2017-05-09T11:24:27.479Z,24.40
2017-05-09T11:26:57.253Z,22.80
2017-05-09T11:29:26.324Z,21.00
2017-05-09T11:31:55.483Z,20.20
2017-05-09T11:34:24.533Z,19.40
2017-05-09T11:36:53.588Z,18.00
2017-05-09T11:39:23.399Z,18.00
2017-05-09T11:41:52.454Z,18.60
2017-05-09T11:44:21.525Z,18.70
2017-05-09T11:46:50.553Z,18.40
2017-05-09T11:49:19.649Z,18.40
2017-05-09T11:51:49.414Z,18.10
2017-05-09T11:54:18.466Z,18.80
2017-05-09T11:56:48.242Z,19.90
2017-05-09T11:59:17.412Z,21.10
2017-05-09T12:01:46.575Z,21.20
2017-05-09T12:04:16.366Z,20.20
2017-05-09T12:06:45.389Z,19.60
2017-05-09T12:09:14.449Z,18.80
2017-05-09T12:11:43.478Z,18.20
2017-05-09T12:14:12.509Z,17.70
2017-05-09T12:16:41.558Z,20.50
2017-05-09T12:19:10.589Z,20.80
2017-05-09T12:21:39.638Z,20.50
2017-05-09T12:24:09.413Z,20.00
2017-05-09T12:26:38.479Z,19.70
2017-05-09T12:29:07.506Z,19.10
2017-05-09T12:31:36.557Z,18.50
2017-05-09T12:34:05.603Z,17.90
2017-05-09T12:36:34.730Z,17.90
2017-05-09T12:39:03.771Z,17.30
2017-05-09T12:41:32.888Z,17.20
2017-05-09T12:44:01.923Z,17.20
2017-05-09T12:46:31.183Z,17.80
2017-05-09T12:49:00.229Z,18.30
2017-05-09T12:51:29.258Z,18.90
2017-05-09T12:53:58.334Z,19.50
2017-05-09T12:56:27.354Z,21.00
2017-05-09T12:58:56.420Z,23.20
2017-05-09T13:01:25.464Z,24.00
2017-05-09T13:03:54.500Z,24.60
2017-05-09T13:06:23.537Z,25.20
2017-05-09T13:08:53.334Z,23.80
2017-05-09T13:11:22.354Z,21.70
2017-05-09T13:13:52.150Z,20.60
2017-05-09T13:16:21.191Z,19.30
2017-05-09T13:18:50.229Z,18.70
2017-05-09T13:21:19.502Z,18.00
2017-05-09T13:23:48.559Z,18.40
2017-05-09T13:26:17.587Z,18.40
2017-05-09T13:28:46.638Z,19.00
2017-05-09T13:31:16.404Z,22.30
2017-05-09T13:33:45.478Z,25.70
2017-05-09T13:36:14.495Z,27.50
2017-05-09T13:38:43.533Z,27.40
2017-05-09T13:41:11.814Z,27.30
2017-05-09T13:43:41.594Z,25.00
2017-05-09T13:46:10.621Z,24.00
2017-05-09T13:48:39.668Z,24.40
2017-05-09T13:51:08.701Z,24.60
2017-05-09T13:53:37.763Z,23.70
2017-05-09T13:56:06.808Z,22.10
2017-05-09T13:58:35.853Z,21.30
2017-05-09T14:01:04.985Z,20.80
2017-05-09T14:03:34.033Z,22.50
2017-05-09T14:06:03.057Z,24.90
2017-05-09T14:08:32.855Z,24.80
2017-05-09T14:11:01.884Z,24.90
2017-05-09T14:13:31.058Z,26.60
2017-05-09T14:16:00.073Z,25.50
2017-05-09T14:18:29.147Z,24.00
2017-05-09T14:20:58.914Z,22.80
2017-05-09T14:23:28.045Z,21.60
2017-05-09T14:25:57.109Z,20.60
2017-05-09T14:28:26.259Z,19.90
2017-05-09T14:30:56.011Z,19.50
2017-05-09T14:33:25.069Z,19.00
2017-05-09T14:35:54.108Z,19.80
2017-05-09T14:38:23.152Z,22.10
2017-05-09T14:40:52.230Z,23.10
2017-05-09T14:43:21.258Z,22.90
2017-05-09T14:45:50.342Z,23.90
2017-05-09T14:48:19.375Z,24.10
2017-05-09T14:50:48.438Z,22.70
2017-05-09T14:53:17.466Z,21.40
2017-05-09T14:55:46.526Z,20.50
2017-05-09T14:58:15.555Z,20.10
2017-05-09T15:00:44.623Z,19.10
2017-05-09T15:03:13.662Z,18.60
2017-05-09T15:05:42.919Z,18.00
2017-05-09T15:08:12.182Z,19.30
2017-05-09T15:10:41.505Z,21.20
2017-05-09T15:13:11.350Z,22.70
2017-05-09T15:15:40.398Z,21.90
2017-05-09T15:18:09.421Z,20.90
2017-05-09T15:20:38.468Z,20.20
2017-05-09T15:23:08.281Z,19.70
2017-05-09T15:25:38.053Z,18.90
2017-05-09T15:28:07.114Z,18.60
2017-05-09T15:30:36.181Z,18.40
2017-05-09T15:33:05.953Z,18.20
2017-05-09T15:35:55.586Z,18.00
2017-05-09T15:38:25.334Z,17.00
2017-05-09T15:40:54.399Z,17.10
2017-05-09T15:43:23.410Z,17.10
2017-05-09T15:45:52.459Z,16.60
2017-05-09T15:48:22.229Z,16.50
2017-05-09T15:50:51.285Z,16.00
2017-05-09T15:53:20.318Z,16.20
2017-05-09T15:55:49.374Z,16.30
2017-05-09T15:58:18.385Z,16.40
2017-05-09T16:00:47.430Z,16.20
2017-05-09T16:03:17.226Z,16.30
2017-05-09T16:05:46.301Z,16.50
2017-05-09T16:08:15.334Z,16.50
2017-05-09T16:10:45.190Z,18.00
2017-05-09T16:13:14.349Z,20.10
2017-05-09T16:15:43.427Z,21.20
2017-05-09T16:18:12.536Z,21.00
2017-05-09T16:20:42.432Z,20.70
2017-05-09T16:23:11.449Z,20.10
2017-05-09T16:25:49.600Z,20.30
2017-05-09T16:28:19.037Z,21.00
2017-05-09T16:30:48.097Z,21.90
2017-05-09T16:33:17.146Z,22.20
2017-05-09T16:35:47.348Z,22.20
2017-05-09T16:38:16.361Z,21.40
2017-05-09T16:40:46.153Z,21.60
2017-05-09T16:43:15.250Z,21.10
2017-05-09T16:45:44.281Z,21.10
2017-05-09T16:51:09.582Z,20.10
2017-05-09T16:53:38.589Z,19.90
2017-05-09T16:56:07.637Z,19.40
2017-05-09T16:58:36.716Z,20.00
2017-05-09T17:01:05.785Z,20.40
2017-05-09T17:03:34.923Z,20.00
2017-05-09T17:06:03.984Z,19.50
2017-05-09T17:08:33.010Z,19.00
2017-05-09T17:11:02.164Z,18.00
2017-05-09T17:13:31.178Z,17.20
2017-05-09T17:16:00.251Z,16.60
2017-05-09T17:18:30.337Z,15.90
2017-05-09T17:20:59.373Z,15.40
2017-05-09T17:23:28.499Z,14.90
2017-05-09T17:25:57.523Z,14.90
2017-05-09T17:28:26.572Z,14.80
2017-05-09T17:30:55.693Z,14.30
2017-05-09T17:33:24.760Z,14.20
2017-05-09T17:35:53.837Z,14.10
2017-05-09T17:38:23.790Z,14.70
2017-05-09T17:40:53.847Z,14.30
2017-05-09T17:43:23.639Z,14.10
2017-05-09T17:45:52.663Z,14.10
2017-05-09T17:48:21.718Z,13.70
2017-05-09T17:50:51.521Z,13.80
2017-05-09T17:53:20.597Z,13.70
2017-05-09T17:55:49.634Z,13.60
2017-05-09T17:58:19.538Z,13.60
2017-05-09T18:00:48.575Z,13.60
2017-05-09T18:03:17.744Z,13.70
2017-05-09T18:05:47.596Z,13.70
2017-05-09T18:08:16.755Z,13.30
2017-05-09T18:10:46.521Z,13.20
2017-05-09T18:13:15.574Z,13.10
2017-05-09T18:15:44.602Z,13.20
2017-05-09T18:18:13.646Z,13.10
2017-05-09T18:20:42.697Z,13.20
2017-05-09T18:23:11.745Z,13.20
2017-05-09T18:25:40.778Z,12.90
2017-05-09T18:28:09.913Z,13.20
2017-05-09T18:30:39.735Z,13.00
2017-05-09T18:33:08.763Z,12.90
2017-05-09T18:35:37.789Z,12.70
2017-05-09T18:38:06.842Z,12.60
2017-05-09T18:40:35.878Z,12.30
2017-05-09T18:43:04.934Z,12.50
2017-05-09T18:45:33.970Z,12.30
2017-05-09T18:48:03.016Z,12.30
2017-05-09T18:50:32.065Z,12.30
2017-05-09T18:53:01.109Z,12.40
2017-05-09T18:55:30.172Z,12.40
2017-05-09T18:57:59.207Z,12.30
2017-05-09T19:00:28.261Z,12.20
2017-05-09T19:02:58.046Z,11.80
2017-05-09T19:05:27.154Z,12.00
2017-05-09T19:07:56.289Z,12.00
2017-05-09T19:10:25.392Z,11.60
2017-05-09T19:12:54.461Z,11.70
2017-05-09T19:15:23.601Z,11.60
2017-05-09T19:17:52.719Z,11.50
2017-05-09T19:20:21.869Z,11.50
2017-05-09T19:22:50.897Z,11.60
2017-05-09T19:25:20.030Z,11.60
2017-05-09T19:27:49.074Z,11.50
2017-05-09T19:30:18.173Z,11.30
2017-05-09T19:32:47.268Z,11.40
2017-05-09T19:35:16.392Z,11.60
2017-05-09T19:37:45.451Z,11.40
2017-05-09T19:40:14.534Z,11.30
2017-05-09T19:42:43.595Z,11.10
2017-05-09T19:45:12.681Z,11.10
2017-05-09T19:47:42.472Z,10.90
2017-05-09T19:50:11.543Z,11.00
2017-05-09T19:52:40.585Z,11.10
2017-05-09T19:55:10.383Z,10.90
2017-05-09T19:57:39.420Z,11.10
2017-05-09T20:00:08.481Z,10.80
2017-05-09T20:02:38.270Z,10.50
2017-05-09T20:05:07.340Z,10.50
2017-05-09T20:07:36.380Z,10.50
2017-05-09T20:10:06.185Z,10.60
2017-05-09T20:12:35.219Z,10.80
2017-05-09T20:15:04.274Z,10.30
2017-05-09T20:17:33.315Z,10.30
2017-05-09T20:20:02.362Z,10.30
2017-05-09T20:22:32.135Z,10.20
2017-05-09T20:25:01.182Z,10.50
2017-05-09T20:27:30.218Z,10.20
2017-05-09T20:29:59.269Z,10.40
2017-05-09T20:32:28.311Z,10.30
2017-05-09T20:34:57.361Z,10.30
2017-05-09T20:37:27.530Z,10.10
2017-05-09T20:39:57.460Z,10.00
2017-05-09T20:42:26.498Z,10.10
2017-05-09T20:44:55.581Z,9.90
2017-05-09T20:47:25.398Z,10.00
2017-05-09T20:49:55.304Z,9.90
2017-05-09T20:52:24.353Z,9.80
2017-05-09T20:54:53.402Z,9.80
2017-05-09T20:57:22.795Z,9.80
2017-05-09T20:59:51.822Z,9.70
2017-05-09T21:02:20.863Z,9.50
2017-05-09T21:04:50.705Z,9.80
2017-05-09T21:07:19.749Z,9.60
2017-05-09T21:09:48.846Z,9.60
2017-05-09T21:12:17.869Z,9.50
2017-05-09T21:14:47.669Z,9.40
2017-05-09T21:17:16.695Z,9.20
2017-05-09T21:19:45.772Z,9.00
2017-05-09T21:22:15.637Z,9.20
2017-05-09T21:24:44.772Z,9.10
2017-05-09T21:27:14.012Z,9.00
2017-05-09T21:29:43.608Z,9.10
2017-05-09T21:32:12.649Z,8.90
2017-05-09T21:34:41.769Z,8.80
2017-05-09T21:37:10.959Z,8.90
2017-05-09T21:39:40.017Z,8.80
2017-05-09T21:42:09.147Z,9.00
2017-05-09T21:44:38.189Z,8.90
2017-05-09T21:47:07.263Z,8.80
2017-05-09T21:49:36.301Z,8.50
2017-05-09T21:52:05.341Z,8.90
2017-05-09T21:54:35.122Z,8.70
2017-05-09T21:57:04.230Z,8.40
2017-05-09T21:59:33.249Z,8.50
2017-05-09T22:02:03.026Z,8.40
2017-05-09T22:04:32.049Z,8.50
2017-05-09T22:07:01.843Z,8.60
2017-05-09T22:09:30.894Z,8.60
2017-05-09T22:11:59.941Z,8.50
2017-05-09T22:14:29.710Z,8.40
2017-05-09T22:16:58.755Z,8.40
2017-05-09T22:19:28.541Z,8.60
2017-05-09T22:21:57.577Z,8.60
2017-05-09T22:24:26.619Z,8.20
2017-05-09T22:26:55.689Z,8.30
2017-05-09T22:29:24.732Z,8.10
2017-05-09T22:31:54.536Z,8.20
2017-05-09T22:34:23.559Z,8.10
2017-05-09T22:36:52.614Z,8.00
2017-05-09T22:39:21.655Z,8.00
2017-05-09T22:41:50.693Z,7.80
2017-05-09T22:44:19.771Z,7.80
2017-05-09T22:46:48.826Z,7.80
2017-05-09T22:49:18.593Z,7.90
2017-05-09T22:51:47.650Z,7.50
2017-05-09T22:54:16.689Z,7.60
2017-05-09T22:56:46.007Z,7.90
2017-05-09T22:59:15.066Z,7.80
2017-05-09T23:01:44.102Z,7.90
2017-05-09T23:04:13.877Z,7.70
2017-05-09T23:06:43.058Z,7.90
2017-05-09T23:09:12.165Z,7.70
2017-05-09T23:11:41.582Z,7.90
2017-05-09T23:14:10.701Z,7.80
2017-05-09T23:16:39.796Z,7.60
2017-05-09T23:19:09.577Z,7.30
2017-05-09T23:21:38.619Z,7.40
2017-05-09T23:24:07.667Z,7.90
2017-05-09T23:26:36.691Z,7.70
2017-05-09T23:29:06.474Z,7.30
2017-05-09T23:31:35.512Z,7.70
2017-05-09T23:34:04.564Z,7.40
2017-05-09T23:36:33.586Z,7.90
2017-05-09T23:39:03.367Z,7.90
2017-05-09T23:41:32.407Z,7.60
2017-05-09T23:44:02.184Z,7.80
2017-05-09T23:46:31.205Z,7.30
2017-05-09T23:49:00.252Z,7.80
2017-05-09T23:51:29.282Z,7.70
2017-05-09T23:53:59.066Z,7.40
2017-05-09T23:56:28.106Z,7.80
2017-05-09T23:58:57.150Z,7.50
